Time;durP1;ratioP1;P1;durP2;ratioP2;P2;SDS_P1;SDS_P2;PMS_P1;PMS_P2;Temp;Humidity;BMP_temperature;BMP_pressure;BME280_temperature;BME280_humidity;BME280_pressure;Samples;Min_cycle;Max_cycle;Signal;HPM_P1;HPM_P2
2022/06/06 00:16:17;;;;;;;10.32;9.30;;;16.60;99.90;;;;;;4259272;26;20429;-88
2022/06/06 00:18:43;;;;;;;12.90;9.80;;;17.00;99.90;;;;;;4986890;28;20092;-88
2022/06/06 00:21:11;;;;;;;14.00;11.35;;;16.60;99.90;;;;;;4988348;28;20201;-88
2022/06/06 00:23:38;;;;;;;13.85;10.85;;;17.70;99.90;;;;;;5012736;28;20053;-88
2022/06/06 00:26:10;;;;;;;11.55;9.30;;;16.70;99.90;;;;;;4999624;28;20132;-88
2022/06/06 00:28:38;;;;;;;13.18;10.50;;;17.00;99.90;;;;;;5016335;28;20049;-89
2022/06/06 00:36:39;;;;;;;14.52;11.30;;;17.70;99.90;;;;;;5013570;28;20524;-89
2022/06/06 00:39:08;;;;;;;14.80;12.55;;;16.70;99.90;;;;;;5003863;28;20045;-88
2022/06/06 00:41:43;;;;;;;13.00;10.68;;;16.80;99.90;;;;;;5001816;28;20406;-89
2022/06/06 00:44:18;;;;;;;13.77;10.60;;;17.50;99.90;;;;;;5000688;28;20563;-88
2022/06/06 00:47:26;;;;;;;14.00;11.18;;;17.80;99.90;;;;;;5001092;28;20398;-89
2022/06/06 00:50:01;;;;;;;13.40;11.43;;;16.90;99.90;;;;;;4971505;28;20267;-89
2022/06/06 00:52:31;;;;;;;13.93;11.90;;;17.80;99.90;;;;;;5010202;28;20055;-89
2022/06/06 00:55:04;;;;;;;11.43;10.10;;;17.50;99.90;;;;;;5008068;28;20103;-89
2022/06/06 00:57:34;;;;;;;13.75;10.40;;;17.70;99.90;;;;;;5007136;28;20049;-89
2022/06/06 01:00:14;;;;;;;13.80;10.60;;;16.90;99.90;;;;;;5005774;28;20062;-90
2022/06/06 01:02:43;;;;;;;12.85;11.10;;;16.90;99.90;;;;;;5006479;28;20049;-89
2022/06/06 01:05:10;;;;;;;12.38;11.07;;;17.60;99.90;;;;;;5012385;28;20053;-90
2022/06/06 01:07:38;;;;;;;12.20;10.85;;;16.90;99.90;;;;;;4995392;28;20057;-89
2022/06/06 01:10:07;;;;;;;15.57;11.48;;;16.70;99.90;;;;;;4994135;28;20046;-90
2022/06/06 01:12:34;;;;;;;14.95;12.60;;;17.00;99.90;;;;;;4993820;28;20047;-89
2022/06/06 01:15:09;;;;;;;14.07;11.77;;;17.20;99.90;;;;;;4976089;28;20045;-89
2022/06/06 01:17:52;;;;;;;14.85;11.23;;;17.50;99.90;;;;;;5024550;28;20049;-89
2022/06/06 01:20:44;;;;;;;14.35;11.98;;;16.80;99.90;;;;;;5008991;28;20053;-89
2022/06/06 01:23:38;;;;;;;13.55;11.20;;;17.60;99.90;;;;;;5000194;28;20041;-89
2022/06/06 01:26:26;;;;;;;16.38;12.30;;;16.80;99.90;;;;;;5008640;28;20049;-90
2022/06/06 01:29:06;;;;;;;15.60;11.38;;;17.00;99.90;;;;;;5011829;28;20049;-89
2022/06/06 01:31:48;;;;;;;15.05;11.68;;;17.10;99.90;;;;;;5007891;28;20063;-89
2022/06/06 01:34:22;;;;;;;13.75;11.05;;;17.80;99.90;;;;;;5006487;28;20401;-89
2022/06/06 01:36:50;;;;;;;19.40;12.10;;;17.30;99.90;;;;;;5008767;28;20468;-90
2022/06/06 01:39:18;;;;;;;13.80;10.48;;;16.60;99.90;;;;;;5010875;28;20101;-90
2022/06/06 01:41:51;;;;;;;19.45;12.20;;;17.50;99.90;;;;;;4991792;28;20069;-89
2022/06/06 01:44:47;;;;;;;14.48;11.25;;;16.60;99.90;;;;;;5008514;28;20057;-90
2022/06/06 01:47:17;;;;;;;;;;;17.40;99.90;;;;;;5006810;28;20405;-87
2022/06/06 01:49:44;;;;;;;17.58;10.80;;;17.60;99.90;;;;;;5008625;28;20370;-89
2022/06/06 01:52:13;;;;;;;16.10;10.35;;;17.70;99.90;;;;;;4992686;28;20421;-90
2022/06/06 01:54:43;;;;;;;19.17;11.77;;;17.30;99.90;;;;;;5007204;28;20041;-89
2022/06/06 01:57:12;;;;;;;18.45;11.40;;;16.60;99.90;;;;;;4978553;28;20045;-92
2022/06/06 01:59:40;;;;;;;17.15;10.93;;;16.30;99.90;;;;;;5012118;28;20127;-90
2022/06/06 02:02:07;;;;;;;14.43;10.05;;;16.20;99.90;;;;;;4990552;28;20501;-90
2022/06/06 02:04:33;;;;;;;13.45;10.02;;;17.60;99.90;;;;;;4989204;28;20128;-91
2022/06/06 02:07:00;;;;;;;18.80;11.55;;;16.90;99.90;;;;;;4989111;28;20057;-92
2022/06/06 02:09:31;;;;;;;18.95;9.90;;;17.70;99.90;;;;;;4992899;28;20049;-91
2022/06/06 02:12:02;;;;;;;19.65;11.10;;;16.10;99.90;;;;;;4991639;28;20108;-91
2022/06/06 02:14:31;;;;;;;13.20;9.55;;;16.60;99.90;;;;;;4991883;28;20053;-89
2022/06/06 02:16:57;;;;;;;15.05;8.85;;;16.80;99.90;;;;;;5008794;28;20401;-90
2022/06/06 02:19:23;;;;;;;12.32;8.18;;;16.40;99.90;;;;;;4976258;28;20064;-91
2022/06/06 02:21:49;;;;;;;12.88;9.05;;;16.90;99.90;;;;;;4972622;28;20112;-89
2022/06/06 02:24:15;;;;;;;14.18;8.18;;;16.20;99.90;;;;;;4973293;28;20067;-93
2022/06/06 02:26:41;;;;;;;12.00;8.63;;;17.00;99.90;;;;;;4983537;28;20073;-91
2022/06/06 02:29:08;;;;;;;8.80;7.80;;;16.30;99.90;;;;;;5001120;28;20057;-90
2022/06/06 02:31:37;;;;;;;7.13;6.38;;;16.70;99.90;;;;;;4995134;28;20429;-89
2022/06/06 02:34:05;;;;;;;10.13;6.68;;;17.10;99.90;;;;;;4977137;28;20060;-89
2022/06/06 02:36:34;;;;;;;10.55;7.13;;;15.80;99.90;;;;;;5010316;28;20041;-90
2022/06/06 02:39:03;;;;;;;9.52;7.15;;;16.40;99.90;;;;;;4992215;28;20057;-90
2022/06/06 02:41:29;;;;;;;8.45;6.10;;;16.20;99.90;;;;;;5003630;28;20093;-90
2022/06/06 02:43:56;;;;;;;10.93;6.07;;;16.80;99.90;;;;;;4986934;28;20053;-89
2022/06/06 02:46:23;;;;;;;8.13;5.75;;;17.50;99.90;;;;;;5002828;28;20060;-90
2022/06/06 02:48:49;;;;;;;9.90;5.53;;;17.30;99.90;;;;;;5004901;28;20055;-90
2022/06/06 02:51:18;;;;;;;7.45;5.72;;;17.40;99.90;;;;;;4974858;28;20071;-91
2022/06/06 02:53:44;;;;;;;8.45;5.40;;;17.30;99.90;;;;;;4989072;28;20037;-90
2022/06/06 02:56:10;;;;;;;8.45;5.75;;;15.90;99.90;;;;;;4989090;28;20152;-90
2022/06/06 02:58:36;;;;;;;6.40;5.15;;;16.10;99.90;;;;;;4971677;28;20428;-91
2022/06/06 03:01:06;;;;;;;7.70;5.43;;;17.20;99.90;;;;;;4971330;28;20068;-90
2022/06/06 03:03:35;;;;;;;8.15;6.47;;;16.60;99.90;;;;;;5006218;28;20045;-92
2022/06/06 03:06:23;;;;;;;7.97;6.07;;;16.50;99.90;;;;;;4986239;28;20099;-90
2022/06/06 03:09:12;;;;;;;8.48;6.53;;;15.70;99.90;;;;;;5000993;28;20119;-89
2022/06/06 03:11:47;;;;;;;10.27;6.22;;;16.70;99.90;;;;;;4974782;28;20045;-90
2022/06/06 03:14:50;;;;;;;8.95;6.50;;;16.60;99.90;;;;;;4999494;28;20119;-90
2022/06/06 03:20:46;;;;;;;11.60;6.47;;;15.70;99.90;;;;;;5028327;28;20046;-94
2022/06/06 03:23:44;;;;;;;8.38;6.85;;;16.30;99.90;;;;;;5019538;28;20053;-95
2022/06/06 03:26:25;;;;;;;10.02;6.93;;;15.80;99.90;;;;;;5019004;28;20057;-94
2022/06/06 03:29:00;;;;;;;9.63;7.40;;;16.90;99.90;;;;;;5019025;28;20052;-94
2022/06/06 03:31:46;;;;;;;10.68;6.78;;;16.70;99.90;;;;;;5015682;28;20147;-94
2022/06/06 03:34:33;;;;;;;11.88;7.47;;;16.60;99.90;;;;;;5010564;28;20033;-94
2022/06/06 03:37:24;;;;;;;11.15;7.78;;;16.60;99.90;;;;;;5009674;28;20386;-93
2022/06/06 03:40:11;;;;;;;11.68;7.57;;;17.10;99.90;;;;;;5028062;28;20484;-95
2022/06/06 03:42:53;;;;;;;9.23;7.13;;;16.50;99.90;;;;;;5011844;28;20059;-94
2022/06/06 03:45:28;;;;;;;10.45;7.30;;;15.70;99.90;;;;;;5013006;28;20121;-93
2022/06/06 03:48:13;;;;;;;11.20;7.57;;;16.50;99.90;;;;;;5014504;28;20049;-93
2022/06/06 03:51:06;;;;;;;7.55;6.28;;;16.90;99.90;;;;;;5014174;28;20124;-94
2022/06/06 03:53:32;;;;;;;9.70;7.60;;;15.70;99.90;;;;;;5013457;28;20506;-91
2022/06/06 03:56:23;;;;;;;10.35;7.03;;;16.20;99.90;;;;;;5014582;28;20037;-93
2022/06/06 03:58:50;;;;;;;12.70;6.60;;;17.10;99.90;;;;;;5014671;28;20076;-93
2022/06/06 04:01:20;;;;;;;11.27;7.03;;;16.00;99.90;;;;;;5002116;28;20069;-94
2022/06/06 04:03:49;;;;;;;11.85;7.47;;;17.10;99.90;;;;;;4994664;28;20458;-94
2022/06/06 04:06:17;;;;;;;9.43;6.53;;;15.80;99.90;;;;;;5012954;28;20049;-94
2022/06/06 04:08:46;;;;;;;8.35;6.50;;;16.40;99.90;;;;;;5012821;28;20076;-94
2022/06/06 04:11:28;;;;;;;7.55;5.63;;;15.60;99.90;;;;;;5012238;28;20056;-93
2022/06/06 04:14:28;;;;;;;6.60;5.80;;;16.40;99.90;;;;;;5012820;28;20132;-94
2022/06/06 04:17:34;;;;;;;7.28;5.50;;;17.10;99.90;;;;;;5030154;28;20049;-94
2022/06/06 04:20:25;;;;;;;8.48;5.65;;;16.10;99.90;;;;;;5013789;28;20045;-93
2022/06/06 04:23:15;;;;;;;6.93;5.55;;;15.60;99.90;;;;;;5013986;28;20517;-93
2022/06/06 04:25:56;;;;;;;5.55;4.97;;;15.70;99.90;;;;;;5014873;28;20041;-94
2022/06/06 04:28:38;;;;;;;5.90;4.78;;;16.00;99.90;;;;;;5016907;28;20045;-94
2022/06/06 04:31:08;;;;;;;5.47;4.32;;;16.20;99.90;;;;;;5019143;28;20073;-94
2022/06/06 04:33:53;;;;;;;5.40;4.38;;;17.20;99.90;;;;;;5013032;28;20041;-94
2022/06/06 04:36:26;;;;;;;;;;;16.70;99.90;;;;;;5012591;28;20037;-94
2022/06/06 04:39:04;;;;;;;5.13;4.53;;;15.80;99.90;;;;;;5014161;28;20384;-93
2022/06/06 04:41:42;;;;;;;6.32;4.72;;;16.70;99.90;;;;;;5012325;28;20095;-94
2022/06/06 04:44:43;;;;;;;5.50;4.22;;;17.20;99.90;;;;;;5012748;28;20058;-94
2022/06/06 04:47:43;;;;;;;5.88;4.10;;;16.00;99.90;;;;;;5013551;28;20053;-93
2022/06/06 04:50:18;;;;;;;4.40;4.00;;;15.80;99.90;;;;;;5013788;28;20055;-94
2022/06/06 04:52:55;;;;;;;4.95;3.63;;;17.30;99.90;;;;;;5015011;28;20045;-94
2022/06/06 04:55:23;;;;;;;5.57;3.60;;;15.70;99.90;;;;;;5015331;28;20105;-94
2022/06/06 04:57:55;;;;;;;3.15;2.85;;;15.90;99.90;;;;;;5012230;28;20049;-93
2022/06/06 05:00:26;;;;;;;4.25;3.30;;;17.20;99.90;;;;;;5018397;28;20060;-94
2022/06/06 05:02:53;;;;;;;2.95;2.67;;;17.20;99.90;;;;;;5001741;28;20073;-94
2022/06/06 05:05:28;;;;;;;3.35;2.90;;;16.40;99.90;;;;;;5014157;28;20080;-94
2022/06/06 05:08:20;;;;;;;2.78;2.30;;;15.60;99.90;;;;;;5013194;28;20052;-94
2022/06/06 05:11:17;;;;;;;4.18;2.88;;;15.80;99.90;;;;;;5021807;28;20048;-94
2022/06/06 05:13:49;;;;;;;3.17;2.72;;;17.20;99.90;;;;;;5017230;28;20045;-94
2022/06/06 05:16:21;;;;;;;3.20;2.75;;;16.70;99.90;;;;;;5003166;28;20050;-91
2022/06/06 05:19:02;;;;;;;4.43;3.28;;;16.00;99.90;;;;;;4991959;28;20113;-94
2022/06/06 05:21:47;;;;;;;3.72;3.00;;;16.80;99.90;;;;;;4992944;28;20042;-93
2022/06/06 05:24:53;;;;;;;6.18;3.45;;;15.60;99.90;;;;;;4994767;28;20069;-93
2022/06/06 05:27:38;;;;;;;4.55;3.50;;;16.10;99.90;;;;;;4995993;28;20052;-93
2022/06/06 05:30:25;;;;;;;4.35;3.35;;;16.40;99.90;;;;;;4988214;28;20048;-93
2022/06/06 05:32:56;;;;;;;5.68;4.20;;;16.90;99.90;;;;;;4991499;28;20046;-93
2022/06/06 05:35:45;;;;;;;6.22;4.47;;;16.50;99.90;;;;;;5000243;28;20085;-93
2022/06/06 05:38:42;;;;;;;5.55;3.97;;;15.50;99.90;;;;;;5005221;28;20048;-93
2022/06/06 05:41:39;;;;;;;8.05;4.15;;;16.60;99.90;;;;;;5003706;28;20084;-93
2022/06/06 05:44:43;;;;;;;7.55;4.72;;;15.10;99.90;;;;;;5003484;28;20057;-94
2022/06/06 05:47:30;;;;;;;6.53;4.18;;;15.90;99.90;;;;;;4965437;28;20041;-93
2022/06/06 05:50:22;;;;;;;7.38;4.68;;;16.20;99.90;;;;;;5001356;28;20045;-94
2022/06/06 05:53:11;;;;;;;9.48;4.80;;;16.30;99.90;;;;;;4999102;28;20046;-92
2022/06/06 05:55:37;;;;;;;8.52;4.75;;;15.50;99.90;;;;;;4996949;28;20081;-93
2022/06/06 05:58:16;;;;;;;8.40;5.50;;;15.80;99.90;;;;;;5003139;28;20105;-93
2022/06/06 06:01:02;;;;;;;8.20;5.32;;;16.50;99.90;;;;;;4998855;28;20042;-93
2022/06/06 06:03:56;;;;;;;8.30;5.10;;;15.90;99.90;;;;;;4997068;28;20053;-93
2022/06/06 06:06:32;;;;;;;10.50;5.90;;;16.40;99.90;;;;;;4996866;28;20054;-93
2022/06/06 06:09:01;;;;;;;10.77;5.75;;;15.50;99.90;;;;;;5001572;28;20117;-93
2022/06/06 06:11:55;;;;;;;9.48;5.88;;;16.80;99.90;;;;;;5002718;28;20048;-93
2022/06/06 06:14:47;;;;;;;9.73;5.82;;;16.40;99.90;;;;;;4997626;28;20046;-94
2022/06/06 06:17:19;;;;;;;8.65;5.97;;;15.30;99.90;;;;;;5022176;28;20057;-93
2022/06/06 06:20:09;;;;;;;7.55;5.22;;;16.50;99.90;;;;;;5023744;28;20050;-93
2022/06/06 06:22:42;;;;;;;10.27;5.55;;;16.40;99.90;;;;;;5022639;28;20088;-92
2022/06/06 06:25:11;;;;;;;8.68;6.07;;;16.10;99.90;;;;;;5026650;28;20030;-94
2022/06/06 06:27:42;;;;;;;10.25;6.28;;;16.80;99.90;;;;;;4992856;28;20080;-93
2022/06/06 06:30:10;;;;;;;12.82;7.20;;;15.90;99.90;;;;;;5020756;28;20071;-95
2022/06/06 06:32:58;;;;;;;9.27;6.28;;;16.40;99.90;;;;;;5007486;28;20032;-93
2022/06/06 06:35:44;;;;;;;10.00;6.32;;;15.80;99.90;;;;;;5022861;28;20072;-95
2022/06/06 06:38:28;;;;;;;;;;;15.70;99.90;;;;;;5020214;28;20128;-93
2022/06/06 06:41:23;;;;;;;10.10;5.60;;;16.70;99.90;;;;;;5036078;28;20336;-95
2022/06/06 06:44:08;;;;;;;8.82;6.35;;;15.80;99.90;;;;;;4994685;28;20041;-93
2022/06/06 06:46:38;;;;;;;8.57;6.03;;;16.30;99.90;;;;;;5020367;28;20060;-94
2022/06/06 06:49:11;;;;;;;10.70;6.18;;;15.90;99.90;;;;;;5019812;28;20308;-95
2022/06/06 06:52:18;;;;;;;11.52;6.45;;;15.90;99.90;;;;;;5018092;28;20045;-93
2022/06/06 06:55:10;;;;;;;8.18;5.72;;;15.40;99.90;;;;;;5021306;28;20041;-92
2022/06/06 06:58:00;;;;;;;7.78;5.00;;;16.00;99.90;;;;;;5021853;28;20045;-93
2022/06/06 07:01:00;;;;;;;6.35;4.00;;;16.30;99.90;;;;;;5035204;28;20046;-94
2022/06/06 07:09:32;;;;;;;8.30;4.38;;;16.80;99.90;;;;;;5031431;28;20045;-94
2022/06/06 07:12:10;;;;;;;8.23;4.55;;;17.00;99.90;;;;;;5015922;28;20107;-92
2022/06/06 07:14:43;;;;;;;7.50;4.60;;;16.70;99.90;;;;;;5014391;28;20187;-95
2022/06/06 07:17:12;;;;;;;8.23;4.88;;;15.60;99.90;;;;;;5015316;28;20064;-96
2022/06/06 07:20:03;;;;;;;5.28;4.10;;;16.10;99.90;;;;;;4996701;28;20501;-94
2022/06/06 07:25:37;;;;;;;4.53;3.60;;;16.10;99.90;;;;;;5032491;28;20053;-94
2022/06/06 07:28:09;;;;;;;5.68;4.00;;;16.20;99.90;;;;;;5016376;28;20057;-93
2022/06/06 07:30:41;;;;;;;8.23;3.88;;;15.90;99.90;;;;;;5014359;28;20042;-94
2022/06/06 07:33:26;;;;;;;6.40;3.97;;;15.40;99.90;;;;;;5012207;28;20053;-94
2022/06/06 07:35:59;;;;;;;4.80;3.97;;;16.70;99.90;;;;;;5014107;28;20041;-92
2022/06/06 07:38:48;;;;;;;5.93;4.15;;;16.40;99.90;;;;;;5011328;28;20073;-93
2022/06/06 07:41:43;;;;;;;7.38;4.15;;;17.10;99.90;;;;;;5031926;28;20064;-94
2022/06/06 07:44:46;;;;;;;6.18;3.60;;;16.20;99.90;;;;;;4998040;28;20037;-92
2022/06/06 07:47:35;;;;;;;7.03;3.92;;;16.60;99.90;;;;;;5007770;28;20446;-94
2022/06/06 07:50:06;;;;;;;7.63;3.85;;;16.10;99.90;;;;;;5005873;28;20057;-92
2022/06/06 07:53:10;;;;;;;9.65;3.72;;;16.40;99.90;;;;;;5005567;28;20551;-92
2022/06/06 07:56:11;;;;;;;6.57;3.50;;;15.90;99.90;;;;;;5002558;28;20040;-92
2022/06/06 07:58:57;;;;;;;8.10;4.20;;;16.10;99.90;;;;;;4998283;28;20064;-91
2022/06/06 08:01:42;;;;;;;4.75;3.17;;;15.70;99.90;;;;;;5008084;28;20041;-91
2022/06/06 08:04:30;;;;;;;4.63;3.03;;;16.80;99.90;;;;;;5003604;28;20409;-92
2022/06/06 08:07:14;;;;;;;8.30;3.15;;;15.80;99.90;;;;;;5006361;28;20060;-92
2022/06/06 08:10:11;;;;;;;4.47;3.13;;;15.90;99.90;;;;;;5012766;28;20081;-90
2022/06/06 08:12:55;;;;;;;7.97;3.33;;;15.80;99.90;;;;;;4991240;28;20077;-90
2022/06/06 08:15:42;;;;;;;5.95;3.15;;;16.50;99.90;;;;;;4998865;28;20050;-91
2022/06/06 08:18:43;;;;;;;4.07;3.50;;;16.60;99.90;;;;;;4988853;28;20107;-90
2022/06/06 08:21:40;;;;;;;5.32;3.60;;;16.10;99.90;;;;;;4988967;28;20437;-90
2022/06/06 08:24:29;;;;;;;5.38;3.53;;;15.60;99.90;;;;;;4986684;28;20057;-90
2022/06/06 08:27:00;;;;;;;5.28;3.65;;;16.30;99.90;;;;;;4982707;28;20181;-91
2022/06/06 08:29:28;;;;;;;5.47;4.20;;;16.50;99.90;;;;;;4967821;28;20049;-89
2022/06/06 08:31:57;;;;;;;8.68;4.97;;;16.40;99.90;;;;;;4985357;28;20056;-93
2022/06/06 08:34:24;;;;;;;7.70;3.92;;;16.00;99.90;;;;;;4994261;28;20137;-92
2022/06/06 08:37:28;;;;;;;5.85;3.28;;;16.70;99.90;;;;;;4955364;28;20054;-91
2022/06/06 08:40:00;;;;;;;6.30;3.80;;;17.20;99.90;;;;;;4985130;28;20042;-90
2022/06/06 08:42:50;;;;;;;7.47;4.07;;;17.50;99.90;;;;;;4986097;28;20050;-91
2022/06/06 08:45:16;;;;;;;5.63;3.88;;;16.20;99.90;;;;;;4983204;28;20081;-91
2022/06/06 08:47:53;;;;;;;6.32;4.20;;;16.80;99.90;;;;;;4987044;28;20049;-91
2022/06/06 08:50:47;;;;;;;6.05;3.80;;;17.30;99.90;;;;;;4994168;28;20040;-93
2022/06/06 08:53:31;;;;;;;9.00;4.63;;;17.00;99.90;;;;;;4990940;28;20053;-93
2022/06/06 08:56:28;;;;;;;5.43;3.13;;;17.70;99.90;;;;;;4990151;28;20046;-96
2022/06/06 08:59:12;;;;;;;7.35;3.60;;;17.50;99.90;;;;;;4989109;28;20061;-95
2022/06/06 09:02:20;;;;;;;4.97;3.08;;;17.70;99.90;;;;;;4971953;28;20085;-95
2022/06/06 09:05:26;;;;;;;5.75;3.60;;;18.20;99.90;;;;;;4970954;28;20109;-96
2022/06/06 09:07:55;;;;;;;4.68;3.08;;;18.00;99.90;;;;;;4971102;28;20047;-96
2022/06/06 09:10:53;;;;;;;5.18;2.80;;;18.40;99.90;;;;;;4973903;28;20100;-96
2022/06/06 09:13:34;;;;;;;5.55;3.15;;;18.30;99.90;;;;;;4974620;28;20398;-93
2022/06/06 09:16:32;;;;;;;5.97;3.45;;;18.30;99.90;;;;;;4991667;28;20093;-92
2022/06/06 09:19:33;;;;;;;7.60;2.60;;;18.20;99.90;;;;;;4993187;28;20042;-94
2022/06/06 09:22:14;;;;;;;3.72;2.50;;;18.40;99.90;;;;;;4995827;28;20050;-89
2022/06/06 09:25:26;;;;;;;7.50;2.92;;;18.00;99.90;;;;;;4997480;28;20045;-93
2022/06/06 09:28:16;;;;;;;5.90;2.40;;;17.90;99.90;;;;;;4965498;28;20045;-94
2022/06/06 09:31:00;;;;;;;4.78;2.30;;;17.40;99.90;;;;;;5004580;28;20046;-93
2022/06/06 09:33:58;;;;;;;6.05;2.50;;;17.30;99.90;;;;;;5001657;28;20076;-96
2022/06/06 09:36:44;;;;;;;5.15;2.40;;;17.00;99.90;;;;;;5001557;28;20069;-92
2022/06/06 09:39:33;;;;;;;3.13;2.10;;;16.60;99.90;;;;;;4999601;28;20049;-95
2022/06/06 09:42:20;;;;;;;3.55;2.08;;;16.70;99.90;;;;;;4996778;28;20046;-94
2022/06/06 09:45:29;;;;;;;2.70;1.83;;;17.00;99.90;;;;;;4993900;28;20046;-93
2022/06/06 09:48:25;;;;;;;3.05;1.80;;;17.80;99.90;;;;;;5004975;28;20045;-94
2022/06/06 09:51:29;;;;;;;2.45;1.80;;;18.30;99.90;;;;;;5003178;28;20105;-94
2022/06/06 10:00:18;;;;;;;4.47;1.60;;;19.10;99.90;;;;;;4991237;28;20102;-96
2022/06/06 10:03:01;;;;;;;;;;;19.30;99.90;;;;;;4977430;28;20114;-93
2022/06/06 10:05:57;;;;;;;3.47;1.83;;;19.40;99.90;;;;;;4977298;28;19921;-91
2022/06/06 10:08:50;;;;;;;3.35;2.10;;;19.10;99.90;;;;;;4976216;28;20101;-92
2022/06/06 10:11:36;;;;;;;3.25;1.70;;;19.30;99.90;;;;;;4979811;28;20047;-94
2022/06/06 10:14:38;;;;;;;3.53;1.70;;;19.30;99.90;;;;;;4982024;28;20070;-93
2022/06/06 10:17:52;;;;;;;6.00;1.90;;;19.90;99.90;;;;;;5019674;28;20049;-92
2022/06/06 10:20:41;;;;;;;4.05;1.90;;;19.90;99.90;;;;;;5007990;28;20045;-89
2022/06/06 10:23:19;;;;;;;4.88;1.60;;;20.80;99.90;;;;;;5013052;28;20053;-91
2022/06/06 10:26:04;;;;;;;2.60;1.40;;;20.60;99.90;;;;;;5015627;28;20416;-90
2022/06/06 10:28:41;;;;;;;;;;;20.70;99.90;;;;;;5017130;28;20045;-91
2022/06/06 10:31:22;;;;;;;5.95;1.50;;;20.70;99.90;;;;;;5021007;28;19984;-91
2022/06/06 10:34:17;;;;;;;4.20;1.80;;;20.50;99.90;;;;;;5020181;28;20038;-91
2022/06/06 10:37:08;;;;;;;3.97;1.30;;;20.80;99.90;;;;;;5017229;28;20049;-90
2022/06/06 10:39:40;;;;;;;4.13;1.42;;;20.90;99.90;;;;;;5009662;28;20041;-90
2022/06/06 10:42:12;;;;;;;7.15;1.73;;;20.60;99.90;;;;;;5016070;28;20046;-90
2022/06/06 10:44:39;;;;;;;4.25;1.23;;;19.50;99.90;;;;;;5016978;28;20105;-91
2022/06/06 10:47:14;;;;;;;5.05;1.40;;;19.10;99.90;;;;;;5012269;28;20103;-91
2022/06/06 10:49:46;;;;;;;5.28;1.30;;;19.30;99.90;;;;;;5019606;28;20098;-91
2022/06/06 10:52:46;;;;;;;4.60;1.20;;;18.90;99.90;;;;;;5017222;28;20052;-90
2022/06/06 10:55:50;;;;;;;3.17;1.30;;;19.20;99.90;;;;;;5018289;28;20045;-92
2022/06/06 10:58:31;;;;;;;2.45;1.30;;;19.00;99.90;;;;;;5029487;28;20046;-91
2022/06/06 11:01:12;;;;;;;4.93;1.50;;;18.50;99.90;;;;;;5006252;28;20092;-90
2022/06/06 11:03:41;;;;;;;4.20;1.33;;;18.10;99.90;;;;;;5014176;28;20412;-92
2022/06/06 11:06:32;;;;;;;3.65;1.50;;;18.50;99.90;;;;;;5014128;28;20113;-90
2022/06/06 11:09:25;;;;;;;3.30;1.40;;;18.70;99.90;;;;;;5017225;28;20104;-91
2022/06/06 11:12:00;;;;;;;4.05;1.88;;;19.10;99.90;;;;;;5017284;28;20072;-90
2022/06/06 11:14:45;;;;;;;4.57;1.50;;;19.40;99.90;;;;;;5022838;28;20069;-91
2022/06/06 11:17:43;;;;;;;;;;;19.40;99.90;;;;;;4990934;28;20544;-91
2022/06/06 11:20:34;;;;;;;3.47;1.70;;;19.60;99.90;;;;;;4949248;28;19921;-90
2022/06/06 11:23:37;;;;;;;4.38;1.95;;;19.00;99.90;;;;;;4992123;28;20044;-90
2022/06/06 11:26:28;;;;;;;3.92;1.70;;;18.40;99.90;;;;;;4992674;28;20057;-91
2022/06/06 11:29:16;;;;;;;3.60;1.80;;;18.30;99.90;;;;;;4993146;28;20050;-90
2022/06/06 11:32:07;;;;;;;5.13;2.10;;;17.90;99.90;;;;;;5002060;28;20161;-90
2022/06/06 11:35:23;;;;;;;3.90;2.10;;;18.20;99.90;;;;;;4995515;28;20456;-88
2022/06/06 11:38:11;;;;;;;3.60;1.77;;;17.80;99.90;;;;;;4995744;28;20057;-91
2022/06/06 11:41:15;;;;;;;6.30;1.65;;;17.70;99.90;;;;;;4993254;28;20112;-88
2022/06/06 11:44:10;;;;;;;2.80;1.20;;;17.80;99.90;;;;;;4999883;28;20482;-90
2022/06/06 11:46:56;;;;;;;2.90;1.30;;;18.00;99.90;;;;;;4997324;28;20046;-90
2022/06/06 11:50:00;;;;;;;5.35;1.98;;;17.90;99.90;;;;;;4977434;28;20046;-89
2022/06/06 11:52:39;;;;;;;4.32;1.55;;;18.20;99.90;;;;;;4973319;28;20053;-90
2022/06/06 11:55:30;;;;;;;3.75;1.50;;;18.40;99.90;;;;;;4970487;28;20042;-90
2022/06/06 11:58:02;;;;;;;7.50;1.80;;;18.30;99.90;;;;;;4971377;28;20050;-90
2022/06/06 12:00:46;;;;;;;3.28;1.90;;;17.80;99.90;;;;;;4969460;28;20554;-91
2022/06/06 12:03:36;;;;;;;3.63;1.80;;;17.50;99.90;;;;;;4969691;28;20050;-92
2022/06/06 12:06:27;;;;;;;5.75;1.95;;;17.60;99.90;;;;;;4969951;28;20054;-91
2022/06/06 12:09:24;;;;;;;7.43;1.60;;;18.20;99.90;;;;;;4972274;28;20057;-92
2022/06/06 12:11:59;;;;;;;2.33;1.35;;;17.90;99.90;;;;;;4973764;28;20162;-91
2022/06/06 12:14:44;;;;;;;2.67;1.30;;;18.20;99.90;;;;;;4975876;28;20039;-95
2022/06/06 12:17:33;;;;;;;3.17;1.33;;;17.90;99.90;;;;;;4979978;28;20081;-96
2022/06/06 12:20:29;;;;;;;4.93;1.38;;;18.20;99.90;;;;;;4995895;28;20038;-95
2022/06/06 12:23:32;;;;;;;5.53;1.73;;;18.10;99.90;;;;;;4982659;28;20042;-94
2022/06/06 12:26:04;;;;;;;4.30;1.60;;;17.90;99.90;;;;;;4997904;28;20022;-95
2022/06/06 12:28:38;;;;;;;3.50;1.40;;;18.00;99.90;;;;;;4980139;28;20033;-96
2022/06/06 12:31:10;;;;;;;;;;;18.00;99.90;;;;;;4981440;28;20061;-95
2022/06/06 12:34:06;;;;;;;3.08;1.88;;;18.20;99.90;;;;;;4982814;28;19929;-93
2022/06/06 12:36:54;;;;;;;3.70;1.48;;;18.40;99.90;;;;;;4976703;28;20048;-95
2022/06/06 12:39:29;;;;;;;2.65;1.30;;;18.50;99.90;;;;;;4981727;28;20053;-96
2022/06/06 12:41:58;;;;;;;;;;;18.40;99.90;;;;;;4984271;28;20106;-95
2022/06/06 12:44:57;;;;;;;2.28;1.30;;;18.30;99.90;;;;;;4984616;28;19922;-95
2022/06/06 12:47:57;;;;;;;2.83;1.30;;;18.20;99.90;;;;;;4980010;28;20051;-93
2022/06/06 12:50:25;;;;;;;1.98;1.20;;;17.90;99.90;;;;;;5000207;28;20054;-94
2022/06/06 12:53:20;;;;;;;3.33;1.00;;;17.80;99.90;;;;;;5000539;28;20035;-96
2022/06/06 12:58:57;;;;;;;3.90;1.48;;;17.60;99.90;;;;;;4994060;28;20077;-89
2022/06/06 13:01:39;;;;;;;7.15;1.52;;;17.50;99.90;;;;;;4990887;28;20042;-93
2022/06/06 13:04:42;;;;;;;7.85;1.83;;;17.50;99.90;;;;;;4976800;28;20042;-92
2022/06/06 13:07:48;;;;;;;1.65;1.13;;;17.60;99.90;;;;;;4981415;28;20049;-95
2022/06/06 13:10:23;;;;;;;3.50;1.35;;;17.30;99.90;;;;;;4996113;28;20046;-96
2022/06/06 13:13:24;;;;;;;2.50;1.13;;;16.70;99.90;;;;;;4976580;28;20046;-94
2022/06/06 13:16:31;;;;;;;2.90;1.17;;;17.00;99.90;;;;;;4996677;28;20049;-92
2022/06/06 13:19:35;;;;;;;3.10;1.40;;;16.70;99.90;;;;;;5019408;28;20109;-96
2022/06/06 15:05:18;;;;;;;4.03;3.15;;;15.20;99.90;;;;;;528401;26;21057;-88
2022/06/06 15:08:15;;;;;;;5.72;4.10;;;15.10;99.90;;;;;;5005000;28;20057;-91
2022/06/06 15:10:55;;;;;;;4.50;3.63;;;15.50;99.90;;;;;;5004847;28;20046;-92
2022/06/06 15:13:22;;;;;;;6.00;4.07;;;14.60;99.90;;;;;;5006449;28;20502;-87
2022/06/06 15:15:55;;;;;;;7.15;4.05;;;14.90;99.90;;;;;;4990555;28;20056;-88
2022/06/06 15:18:28;;;;;;;5.77;4.00;;;14.70;99.90;;;;;;5005633;28;20084;-91
2022/06/06 15:21:02;;;;;;;8.93;4.40;;;14.50;99.90;;;;;;5006896;28;20387;-89
2022/06/06 15:23:53;;;;;;;8.02;4.32;;;16.80;99.90;;;;;;4991408;28;20053;-90
2022/06/06 15:27:06;;;;;;;13.27;5.57;;;16.80;99.90;;;;;;5005076;28;20140;-91
2022/06/06 15:37:23;;;;;;;4.10;1.83;;;14.30;99.90;;;;;;4961252;28;20420;-90
2022/06/06 15:40:22;;;;;;;3.17;1.70;;;13.60;99.90;;;;;;4986397;28;20052;-92
2022/06/06 15:43:30;;;;;;;1.73;1.30;;;14.80;99.90;;;;;;4985079;28;20136;-93
2022/06/06 15:46:55;;;;;;;;;;;;;;;;;;;;;
2022/06/06 15:50:30;;;;;;;1.50;1.30;;;14.20;99.90;;;;;;5021904;28;20046;-91
2022/06/06 15:53:36;;;;;;;2.78;1.45;;;14.80;99.90;;;;;;4958816;28;20051;-93
2022/06/06 15:56:19;;;;;;;1.67;1.30;;;16.00;99.90;;;;;;4926856;29;20547;-91
2022/06/06 15:59:41;;;;;;;;;;;;;;;;;;;;;
2022/06/06 16:05:59;;;;;;;2.88;0.82;;;14.00;99.90;;;;;;5025482;28;20052;-90
2022/06/06 16:08:43;;;;;;;1.05;0.88;;;14.40;99.90;;;;;;5026072;28;20045;-90
2022/06/06 16:15:00;;;;;;;1.25;1.10;;;14.90;99.90;;;;;;5047566;28;20040;-89
2022/06/06 16:20:57;;;;;;;1.10;0.93;;;14.40;99.90;;;;;;4976010;28;20052;-88
2022/06/06 16:23:45;;;;;;;1.25;0.95;;;14.70;99.90;;;;;;5019773;28;20060;-89
2022/06/06 16:26:25;;;;;;;1.30;1.00;;;14.30;99.90;;;;;;5003498;28;20046;-89
2022/06/06 16:29:05;;;;;;;1.73;0.90;;;15.70;99.90;;;;;;5004540;28;20053;-89
2022/06/06 16:31:37;;;;;;;5.13;1.00;;;15.90;99.90;;;;;;5003340;28;20084;-87
2022/06/06 16:34:43;;;;;;;3.15;1.00;;;16.30;99.90;;;;;;5003805;28;20056;-89
2022/06/06 16:37:50;;;;;;;1.25;1.10;;;16.50;99.90;;;;;;5031454;28;20041;-90
2022/06/06 16:40:50;;;;;;;1.70;1.13;;;16.30;99.90;;;;;;5026518;28;20048;-89
2022/06/06 16:50:39;;;;;;;1.27;1.17;;;16.60;99.90;;;;;;5041401;28;20053;-90
2022/06/06 16:54:21;;;;;;;3.88;1.30;;;16.50;99.90;;;;;;5022211;28;20051;-90
2022/06/06 16:57:30;;;;;;;1.63;1.20;;;16.50;99.90;;;;;;4959130;28;20054;-90
2022/06/06 17:00:22;;;;;;;3.72;1.60;;;13.60;99.90;;;;;;4945708;28;20235;-89
2022/06/06 17:03:53;;;;;;;2.85;2.00;;;14.20;99.90;;;;;;5022496;28;20053;-90